X  Close Metar Aviation Weather Data     NZWN Wellington International Airport
Temperature
19°C Temperature
16°C Dewpoint
83% Humidity



Wind
11 KM/H
7 MPH
3 M/S
6 KTS



350°
North
Current Conditions

Mostly Scattered Clouds Mostly Scattered Clouds
Pressure 1010.92 (hPa) - 29.85 (inHg)
Visibility 6.2 (mile) - 10 (km)
Airport
Airport-code NZWN

Location: Wellington International Airport
Distance: 14 (km)

Metar:
NZWN 241630Z AUTO 35006KT 9999 SCT080/// 19/16 Q1011 NOSIG

Time: 25-01-2022 05:30 NZDT